createdAt,value
2018-02-23T00:00:25.066Z,-6.00
2018-02-23T00:02:52.723Z,-6.10
2018-02-23T00:05:20.375Z,-6.10
2018-02-23T00:07:48.072Z,-6.10
2018-02-23T00:10:15.753Z,-6.20
2018-02-23T00:12:44.086Z,-6.20
2018-02-23T00:15:11.733Z,-6.20
2018-02-23T00:17:40.181Z,-6.20
2018-02-23T00:20:07.853Z,-6.30
2018-02-23T00:22:41.568Z,-6.30
2018-02-23T00:25:09.264Z,-6.40
2018-02-23T00:27:36.897Z,-6.40
2018-02-23T00:30:04.542Z,-6.40
2018-02-23T00:32:32.150Z,-6.40
2018-02-23T00:34:59.840Z,-6.50
2018-02-23T00:37:27.460Z,-6.50
2018-02-23T00:39:55.137Z,-6.50
2018-02-23T00:42:22.728Z,-6.60
2018-02-23T00:44:50.362Z,-6.70
2018-02-23T00:47:18.811Z,-6.70
2018-02-23T00:49:46.505Z,-7.30
2018-02-23T00:52:14.918Z,-6.80
2018-02-23T00:54:42.526Z,-6.80
2018-02-23T00:57:10.123Z,-6.90
2018-02-23T00:59:38.874Z,-6.90
2018-02-23T01:02:06.459Z,-6.90
2018-02-23T01:04:35.519Z,-6.90
2018-02-23T01:07:03.959Z,-6.90
2018-02-23T01:09:31.573Z,-7.00
2018-02-23T01:11:59.998Z,-6.90
2018-02-23T01:14:28.173Z,-7.00
2018-02-23T01:16:56.578Z,-7.00
2018-02-23T01:19:24.218Z,-7.00
2018-02-23T01:21:51.890Z,-7.00
2018-02-23T01:24:19.525Z,-7.10
2018-02-23T01:26:47.158Z,-7.10
2018-02-23T01:29:15.538Z,-7.10
2018-02-23T01:31:43.946Z,-7.20
2018-02-23T01:34:11.571Z,-7.20
2018-02-23T01:36:39.989Z,-7.30
2018-02-23T01:39:07.647Z,-7.30
2018-02-23T01:41:35.224Z,-7.30
2018-02-23T01:44:02.931Z,-7.30
2018-02-23T01:46:31.274Z,-7.40
2018-02-23T01:48:58.902Z,-7.40
2018-02-23T01:51:26.497Z,-7.40
2018-02-23T01:53:54.145Z,-7.40
2018-02-23T01:56:21.813Z,-7.40
2018-02-23T01:58:49.434Z,-7.50
2018-02-23T02:01:17.075Z,-7.50
2018-02-23T02:03:45.536Z,-7.60
2018-02-23T02:06:13.140Z,-7.60
2018-02-23T02:08:40.766Z,-7.60
2018-02-23T02:11:09.261Z,-7.50
2018-02-23T02:13:37.015Z,-7.50
2018-02-23T02:16:05.431Z,-7.40
2018-02-23T02:18:33.000Z,-7.40
2018-02-23T02:21:00.641Z,-7.30
2018-02-23T02:23:28.350Z,-7.20
2018-02-23T02:25:55.977Z,-7.20
2018-02-23T02:28:23.645Z,-7.10
2018-02-23T02:30:51.288Z,-7.00
2018-02-23T02:33:18.914Z,-6.90
2018-02-23T02:35:46.603Z,-6.90
2018-02-23T02:38:14.270Z,-6.80
2018-02-23T02:40:41.931Z,-6.80
2018-02-23T02:43:09.527Z,-6.70
2018-02-23T02:45:37.222Z,-6.70
2018-02-23T02:48:04.919Z,-6.70
2018-02-23T02:50:32.620Z,-6.60
2018-02-23T02:53:00.225Z,-6.60
2018-02-23T02:55:28.612Z,-6.50
2018-02-23T02:57:56.249Z,-6.60
2018-02-23T03:00:24.726Z,-6.50
2018-02-23T03:02:54.153Z,-6.60
2018-02-23T03:05:21.806Z,-6.60
2018-02-23T03:07:49.470Z,-6.60
2018-02-23T03:10:17.086Z,-6.60
2018-02-23T03:12:44.730Z,-6.60
2018-02-23T03:15:12.390Z,-6.60
2018-02-23T03:17:39.982Z,-6.60
2018-02-23T03:20:08.480Z,-6.60
2018-02-23T03:22:36.898Z,-6.70
2018-02-23T03:25:04.588Z,-6.70
2018-02-23T03:27:32.236Z,-6.70
2018-02-23T03:29:59.874Z,-6.80
2018-02-23T03:32:27.633Z,-6.90
2018-02-23T03:34:55.265Z,-6.90
2018-02-23T03:37:22.884Z,-7.00
2018-02-23T03:39:50.542Z,-7.10
2018-02-23T03:42:18.214Z,-7.10
2018-02-23T03:44:45.849Z,-7.20
2018-02-23T03:47:13.469Z,-7.20
2018-02-23T03:49:41.898Z,-7.30
2018-02-23T03:52:09.498Z,-7.40
2018-02-23T03:54:37.126Z,-7.40
2018-02-23T03:57:04.807Z,-7.30
2018-02-23T03:59:32.439Z,-7.20
2018-02-23T04:02:00.132Z,-7.10
2018-02-23T04:04:28.350Z,-7.00
2018-02-23T04:06:55.995Z,-6.90
2018-02-23T04:09:23.669Z,-6.80
2018-02-23T04:11:51.286Z,-6.70
2018-02-23T04:14:18.927Z,-6.60
2018-02-23T04:16:46.637Z,-6.50
2018-02-23T04:19:14.274Z,-6.40
2018-02-23T04:21:41.872Z,-6.30
2018-02-23T04:24:09.495Z,-6.20
2018-02-23T04:26:37.215Z,-6.10
2018-02-23T04:29:04.855Z,-6.00
2018-02-23T04:31:32.517Z,-6.00
2018-02-23T04:34:00.137Z,-5.90
2018-02-23T04:36:27.784Z,-5.90
2018-02-23T04:38:55.423Z,-5.80
2018-02-23T04:41:23.128Z,-5.80
2018-02-23T04:43:51.718Z,-5.70
2018-02-23T04:46:20.066Z,-5.60
2018-02-23T04:48:47.645Z,-5.60
2018-02-23T04:51:16.068Z,-5.60
2018-02-23T04:53:43.711Z,-5.60
2018-02-23T04:56:11.352Z,-5.50
2018-02-23T04:58:39.738Z,-5.40
2018-02-23T05:01:07.445Z,-5.40
2018-02-23T05:03:35.040Z,-5.40
2018-02-23T05:06:02.708Z,-5.30
2018-02-23T05:08:31.120Z,-5.30
2018-02-23T05:10:58.799Z,-5.30
2018-02-23T05:13:26.549Z,-5.20
2018-02-23T05:15:54.228Z,-5.20
2018-02-23T05:18:21.912Z,-5.20
2018-02-23T05:20:49.550Z,-5.10
2018-02-23T05:23:17.240Z,-5.10
2018-02-23T05:25:44.836Z,-5.00
2018-02-23T05:28:13.165Z,-4.90
2018-02-23T05:30:40.800Z,-4.90
2018-02-23T05:33:08.378Z,-4.90
2018-02-23T05:35:36.019Z,-4.90
2018-02-23T05:38:03.775Z,-4.90
2018-02-23T05:40:31.404Z,-4.80
2018-02-23T05:42:59.797Z,-4.80
2018-02-23T05:45:27.407Z,-4.80
2018-02-23T05:47:54.992Z,-4.70
2018-02-23T05:50:22.582Z,-4.70
2018-02-23T05:52:50.204Z,-4.60
2018-02-23T05:55:18.607Z,-4.60
2018-02-23T05:57:46.243Z,-4.60
2018-02-23T06:00:19.963Z,-4.60
2018-02-23T06:02:48.335Z,-4.50
2018-02-23T06:05:17.989Z,-4.60
2018-02-23T06:07:47.074Z,-4.60
2018-02-23T06:10:14.779Z,-4.50
2018-02-23T06:12:42.419Z,-4.50
2018-02-23T06:15:10.151Z,-4.50
2018-02-23T06:17:43.358Z,-4.50
2018-02-23T06:20:10.951Z,-4.50
2018-02-23T06:22:38.593Z,-4.50
2018-02-23T06:25:06.225Z,-4.50
2018-02-23T06:27:33.874Z,-4.40
2018-02-23T06:30:01.451Z,-4.40
2018-02-23T06:32:29.042Z,-4.40
2018-02-23T06:34:56.608Z,-4.30
2018-02-23T06:37:24.215Z,-4.30
2018-02-23T06:39:51.871Z,-4.20
2018-02-23T06:42:19.524Z,-4.20
2018-02-23T06:44:47.136Z,-4.20
2018-02-23T06:47:14.766Z,-4.10
2018-02-23T06:49:42.366Z,-4.10
2018-02-23T06:52:10.010Z,-4.10
2018-02-23T06:54:37.616Z,-4.10
2018-02-23T06:57:05.940Z,-3.90
2018-02-23T06:59:33.621Z,-4.00
2018-02-23T07:02:01.298Z,-3.90
2018-02-23T07:04:28.954Z,-4.00
2018-02-23T07:06:56.569Z,-3.90
2018-02-23T07:09:24.205Z,-4.00
2018-02-23T07:11:52.603Z,-3.90
2018-02-23T07:14:20.243Z,-3.90
2018-02-23T07:16:48.592Z,-3.80
2018-02-23T07:19:16.255Z,-3.80
2018-02-23T07:21:43.847Z,-3.70
2018-02-23T07:24:11.636Z,-3.70
2018-02-23T07:26:39.246Z,-3.70
2018-02-23T07:29:06.866Z,-3.60
2018-02-23T07:31:34.510Z,-3.60
2018-02-23T07:34:02.108Z,-3.50
2018-02-23T07:36:29.719Z,-3.50
2018-02-23T07:38:57.382Z,-3.40
2018-02-23T07:41:24.950Z,-3.40
2018-02-23T07:43:52.570Z,-3.30
2018-02-23T07:46:21.791Z,-3.00
2018-02-23T07:48:50.118Z,-2.80
2018-02-23T07:51:17.736Z,-2.80
2018-02-23T07:53:45.372Z,-2.60
2018-02-23T07:56:14.394Z,-2.30
2018-02-23T07:58:42.022Z,-2.30
2018-02-23T08:01:09.741Z,-2.10
2018-02-23T08:03:37.350Z,-2.10
2018-02-23T08:06:05.840Z,-2.10
2018-02-23T08:08:34.238Z,-2.00
2018-02-23T08:11:02.716Z,-1.90
2018-02-23T08:13:30.397Z,-1.90
2018-02-23T08:15:57.988Z,-1.80
2018-02-23T08:18:26.420Z,-1.50
2018-02-23T08:20:54.048Z,-1.60
2018-02-23T08:23:22.479Z,-1.30
2018-02-23T08:25:50.127Z,-1.30
2018-02-23T08:28:17.760Z,-1.20
2018-02-23T08:30:45.418Z,-0.90
2018-02-23T08:33:13.045Z,-0.80
2018-02-23T08:35:40.650Z,-0.60
2018-02-23T08:38:08.302Z,-0.50
2018-02-23T08:40:36.711Z,-0.50
2018-02-23T08:43:04.336Z,-0.50
2018-02-23T08:45:32.780Z,-0.70
2018-02-23T08:48:00.382Z,-0.70
2018-02-23T08:50:28.118Z,-0.60
2018-02-23T08:52:55.726Z,-0.60
2018-02-23T08:55:23.458Z,-0.70
2018-02-23T08:57:51.827Z,-0.70
2018-02-23T09:00:20.217Z,-0.70
2018-02-23T09:02:48.648Z,-0.60
2018-02-23T09:05:16.277Z,-0.60
2018-02-23T09:07:43.917Z,-0.50
2018-02-23T09:10:11.520Z,-0.80
2018-02-23T09:12:39.134Z,-0.70
2018-02-23T09:15:07.512Z,-0.50
2018-02-23T09:17:36.475Z,-0.50
2018-02-23T09:20:04.847Z,-0.60
2018-02-23T09:22:32.455Z,-0.60
2018-02-23T09:25:00.053Z,-0.70
2018-02-23T09:27:27.752Z,-0.40
2018-02-23T09:29:56.132Z,-0.10
2018-02-23T09:32:40.253Z,-0.10
2018-02-23T09:35:07.885Z,-0.10
2018-02-23T09:37:35.716Z,0.00
2018-02-23T09:40:04.107Z,0.20
2018-02-23T09:42:31.862Z,0.20
2018-02-23T09:44:59.570Z,0.30
2018-02-23T09:47:27.219Z,0.10
2018-02-23T09:49:54.854Z,0.00
2018-02-23T09:52:23.432Z,0.00
2018-02-23T09:54:51.073Z,0.00
2018-02-23T09:57:19.501Z,0.50
2018-02-23T09:59:47.095Z,0.40
2018-02-23T10:02:14.742Z,0.60
2018-02-23T10:04:42.334Z,1.00
2018-02-23T10:07:10.735Z,1.50
2018-02-23T10:09:38.405Z,1.50
2018-02-23T10:12:06.043Z,1.30
2018-02-23T10:14:33.666Z,1.50
2018-02-23T10:17:01.283Z,1.40
2018-02-23T10:19:28.918Z,1.60
2018-02-23T10:21:57.280Z,1.30
2018-02-23T10:24:25.677Z,1.20
2018-02-23T10:26:54.049Z,1.30
2018-02-23T10:29:22.456Z,1.30
2018-02-23T10:31:50.101Z,1.30
2018-02-23T10:34:17.751Z,1.50
2018-02-23T10:36:45.384Z,1.90
2018-02-23T10:39:12.987Z,2.10
2018-02-23T10:41:40.631Z,1.90
2018-02-23T10:44:08.292Z,2.10
2018-02-23T10:46:36.700Z,2.50
2018-02-23T10:49:04.334Z,2.50
2018-02-23T10:51:31.951Z,2.70
2018-02-23T10:53:59.613Z,3.00
2018-02-23T10:56:27.227Z,3.00
2018-02-23T10:58:54.910Z,3.00
2018-02-23T11:01:23.673Z,2.90
2018-02-23T11:03:52.244Z,2.90
2018-02-23T11:06:19.961Z,2.80
2018-02-23T11:08:47.556Z,3.10
2018-02-23T11:11:15.978Z,3.80
2018-02-23T11:13:43.556Z,3.70
2018-02-23T11:16:11.149Z,4.50
2018-02-23T11:18:38.889Z,4.60
2018-02-23T11:21:06.641Z,5.00
2018-02-23T11:23:34.321Z,5.30
2018-02-23T11:26:01.975Z,5.80
2018-02-23T11:28:29.625Z,6.50
2018-02-23T11:30:57.312Z,6.50
2018-02-23T11:33:25.737Z,6.60
2018-02-23T11:35:53.448Z,6.50
2018-02-23T11:38:21.090Z,7.50
2018-02-23T11:40:48.732Z,7.90
2018-02-23T11:43:16.413Z,7.70
2018-02-23T11:45:44.100Z,8.10
2018-02-23T11:48:11.774Z,8.60
2018-02-23T11:50:40.200Z,10.70
2018-02-23T11:53:07.946Z,10.70
2018-02-23T11:55:35.631Z,10.80
2018-02-23T11:58:07.304Z,11.50
2018-02-23T12:00:35.807Z,11.40
2018-02-23T12:03:03.549Z,11.30
2018-02-23T12:05:31.250Z,10.50
2018-02-23T12:08:00.535Z,10.30
2018-02-23T12:10:29.124Z,11.60
2018-02-23T12:12:56.904Z,11.20
2018-02-23T12:15:26.310Z,11.30
2018-02-23T12:17:55.368Z,11.30
2018-02-23T12:20:24.286Z,11.80
2018-02-23T12:22:51.954Z,11.80
2018-02-23T12:25:19.556Z,11.20
2018-02-23T12:27:47.156Z,11.70
2018-02-23T12:30:15.505Z,10.50
2018-02-23T12:32:43.100Z,10.50
2018-02-23T12:35:10.782Z,9.90
2018-02-23T12:37:38.430Z,9.50
2018-02-23T12:40:06.328Z,9.90
2018-02-23T12:42:34.375Z,10.80
2018-02-23T12:45:02.230Z,11.00
2018-02-23T12:47:29.938Z,10.70
2018-02-23T12:49:57.536Z,11.90
2018-02-23T12:52:25.227Z,11.80
2018-02-23T12:54:52.940Z,11.70
2018-02-23T12:57:20.562Z,11.30
2018-02-23T12:59:48.215Z,11.20
2018-02-23T13:02:15.854Z,10.80
2018-02-23T13:04:43.464Z,11.00
2018-02-23T13:07:11.101Z,11.20
2018-02-23T13:09:38.859Z,10.80
2018-02-23T13:12:06.531Z,10.80
2018-02-23T13:14:39.772Z,10.90
2018-02-23T13:17:07.589Z,11.60
2018-02-23T13:19:35.333Z,12.30
2018-02-23T13:22:02.987Z,12.90
2018-02-23T13:24:30.584Z,12.80
2018-02-23T13:27:03.917Z,12.00
2018-02-23T13:29:31.945Z,11.70
2018-02-23T13:31:59.684Z,10.70
2018-02-23T13:34:27.415Z,10.50
2018-02-23T13:36:58.404Z,9.80
2018-02-23T13:39:27.017Z,9.80
2018-02-23T13:41:54.672Z,9.50
2018-02-23T13:44:30.851Z,10.10
2018-02-23T13:46:58.715Z,10.80
2018-02-23T13:49:27.109Z,11.10
2018-02-23T13:51:55.462Z,10.60
2018-02-23T13:54:24.923Z,10.60
2018-02-23T13:56:52.516Z,10.60
2018-02-23T13:59:33.067Z,9.60
2018-02-23T14:02:00.729Z,8.60
2018-02-23T14:04:28.359Z,7.40
2018-02-23T14:07:01.705Z,6.10
2018-02-23T14:09:29.347Z,5.10
2018-02-23T14:11:56.971Z,4.80
2018-02-23T14:14:24.593Z,4.90
2018-02-23T14:16:52.991Z,6.10
2018-02-23T14:19:20.634Z,6.10
2018-02-23T14:21:49.063Z,5.30
2018-02-23T14:24:16.711Z,5.30
2018-02-23T14:26:44.370Z,4.90
2018-02-23T14:29:12.066Z,4.20
2018-02-23T14:31:39.745Z,3.60
2018-02-23T14:34:07.843Z,3.40
2018-02-23T14:36:36.294Z,4.40
2018-02-23T14:39:03.998Z,4.40
2018-02-23T14:41:31.646Z,4.30
2018-02-23T14:43:59.300Z,4.10
2018-02-23T14:46:27.823Z,3.80
2018-02-23T14:49:07.416Z,3.80
2018-02-23T14:51:35.152Z,3.60
2018-02-23T14:54:02.791Z,3.60
2018-02-23T14:56:30.611Z,3.10
2018-02-23T14:58:58.361Z,2.90
2018-02-23T15:01:26.027Z,2.80
2018-02-23T15:03:54.445Z,2.20
2018-02-23T15:06:22.232Z,2.20
2018-02-23T15:08:49.930Z,2.00
2018-02-23T15:11:18.316Z,1.70
2018-02-23T15:13:46.803Z,1.60
2018-02-23T15:16:14.513Z,1.60
2018-02-23T15:18:42.183Z,1.70
2018-02-23T15:21:09.788Z,1.60
2018-02-23T15:23:38.214Z,1.50
2018-02-23T15:26:05.799Z,1.50
2018-02-23T15:28:33.465Z,1.50
2018-02-23T15:31:12.712Z,1.30
2018-02-23T15:33:41.108Z,1.20
2018-02-23T15:36:08.799Z,1.20
2018-02-23T15:38:36.459Z,1.20
2018-02-23T15:41:04.855Z,1.10
2018-02-23T15:43:32.609Z,1.00
2018-02-23T15:46:00.286Z,0.80
2018-02-23T15:51:36.262Z,0.70
2018-02-23T15:54:11.491Z,0.50
2018-02-23T15:56:41.512Z,0.50
2018-02-23T15:59:18.747Z,0.40
2018-02-23T16:01:50.806Z,0.40
2018-02-23T16:04:21.781Z,0.30
2018-02-23T16:06:51.828Z,0.30
2018-02-23T16:09:20.402Z,0.20
2018-02-23T16:11:48.497Z,0.20
2018-02-23T16:14:22.607Z,0.10
2018-02-23T16:16:53.590Z,0.10
2018-02-23T16:19:21.820Z,-0.10
2018-02-23T16:21:52.736Z,-0.20
2018-02-23T16:24:21.140Z,-0.20
2018-02-23T16:26:53.124Z,-0.30
2018-02-23T16:29:21.282Z,-0.40
2018-02-23T16:31:51.697Z,-0.50
2018-02-23T16:34:20.333Z,-0.50
2018-02-23T16:36:48.062Z,-0.60
2018-02-23T16:39:15.679Z,-0.60
2018-02-23T16:41:43.403Z,-0.60
2018-02-23T16:44:11.147Z,-0.60
2018-02-23T16:46:39.203Z,-0.80
2018-02-23T16:49:08.354Z,-0.70
2018-02-23T16:51:36.065Z,-0.80
2018-02-23T16:54:04.482Z,-0.80
2018-02-23T16:56:32.193Z,-0.80
2018-02-23T16:59:00.812Z,-0.90
2018-02-23T17:01:28.499Z,-0.90
2018-02-23T17:03:56.570Z,-0.80
2018-02-23T17:06:25.324Z,-0.80
2018-02-23T17:08:55.283Z,-0.90
2018-02-23T17:11:22.934Z,-0.90
2018-02-23T17:13:50.660Z,-0.90
2018-02-23T17:16:21.117Z,-1.00
2018-02-23T17:18:48.791Z,-1.00
2018-02-23T17:21:17.568Z,-0.90
2018-02-23T17:23:45.802Z,-1.00
2018-02-23T17:26:13.572Z,-1.00
2018-02-23T17:28:45.057Z,-1.00
2018-02-23T17:31:16.498Z,-1.00
2018-02-23T17:34:04.089Z,-1.00
2018-02-23T17:36:38.335Z,-1.00
2018-02-23T17:39:07.160Z,-1.10
2018-02-23T17:41:39.235Z,-1.10
2018-02-23T17:44:11.919Z,-1.10
2018-02-23T17:49:16.970Z,-1.00
2018-02-23T17:51:50.120Z,-1.10
2018-02-23T17:54:21.136Z,-1.00
2018-02-23T17:56:51.963Z,-1.00
2018-02-23T17:59:22.854Z,-1.10
2018-02-23T18:01:51.367Z,-1.10
2018-02-23T18:04:26.953Z,-1.10
2018-02-23T18:07:03.509Z,-1.20
2018-02-23T18:09:45.480Z,-1.10
2018-02-23T18:12:17.327Z,-1.10
2018-02-23T18:14:45.397Z,-1.10
2018-02-23T18:17:22.244Z,-1.10
2018-02-23T18:20:03.383Z,-1.10
2018-02-23T18:22:34.312Z,-1.20
2018-02-23T18:25:03.019Z,-1.20
2018-02-23T18:27:31.118Z,-1.10
2018-02-23T18:30:00.411Z,-1.10
2018-02-23T18:32:30.881Z,-1.20
2018-02-23T18:35:02.200Z,-1.10
2018-02-23T18:37:37.757Z,-1.20
2018-02-23T18:40:06.155Z,-1.10
2018-02-23T18:42:35.845Z,-1.20
2018-02-23T18:45:15.388Z,-1.20
2018-02-23T18:47:49.786Z,-1.20
2018-02-23T18:50:17.531Z,-1.20
2018-02-23T18:52:55.942Z,-1.20
2018-02-23T18:55:30.096Z,-1.10
2018-02-23T18:58:05.394Z,-1.20
2018-02-23T19:00:35.085Z,-1.20
2018-02-23T19:03:05.682Z,-1.20
2018-02-23T19:05:35.390Z,-1.20
2018-02-23T19:08:12.256Z,-1.20
2018-02-23T19:10:40.046Z,-1.20
2018-02-23T19:13:11.996Z,-1.30
2018-02-23T19:15:41.626Z,-1.30
2018-02-23T19:18:10.364Z,-1.30
2018-02-23T19:20:40.570Z,-1.30
2018-02-23T19:23:10.444Z,-1.30
2018-02-23T19:25:40.493Z,-1.30
2018-02-23T19:28:08.888Z,-1.30
2018-02-23T19:30:38.174Z,-1.30
2018-02-23T19:33:06.454Z,-1.30
2018-02-23T19:35:34.382Z,-1.30
2018-02-23T19:38:02.635Z,-1.40
2018-02-23T19:40:31.158Z,-1.40
2018-02-23T19:43:00.718Z,-1.40
2018-02-23T19:45:28.461Z,-1.50
2018-02-23T19:48:03.279Z,-1.50
2018-02-23T19:50:31.317Z,-1.60
2018-02-23T19:52:59.886Z,-1.60
2018-02-23T19:55:27.734Z,-1.60
2018-02-23T19:57:55.657Z,-1.60
2018-02-23T20:00:23.352Z,-1.60
2018-02-23T20:02:52.317Z,-1.70
2018-02-23T20:05:20.530Z,-1.60
2018-02-23T20:07:48.308Z,-1.70
2018-02-23T20:10:17.418Z,-1.70
2018-02-23T20:12:45.960Z,-1.70
2018-02-23T20:15:14.708Z,-1.80
2018-02-23T20:17:45.300Z,-1.80
2018-02-23T20:20:13.476Z,-1.90
2018-02-23T20:22:42.106Z,-2.00
2018-02-23T20:25:14.031Z,-2.00
2018-02-23T20:27:41.740Z,-2.10
2018-02-23T20:30:10.451Z,-2.20
2018-02-23T20:32:38.683Z,-2.10
2018-02-23T20:35:06.501Z,-2.20
2018-02-23T20:37:35.416Z,-2.30
2018-02-23T20:40:04.866Z,-2.30
2018-02-23T20:42:33.668Z,-2.40
2018-02-23T20:45:01.782Z,-2.40
2018-02-23T20:47:29.789Z,-2.40
2018-02-23T20:49:58.120Z,-2.50
2018-02-23T20:52:26.449Z,-2.60
2018-02-23T20:54:54.242Z,-2.60
2018-02-23T20:57:21.941Z,-2.70
2018-02-23T20:59:49.779Z,-2.80
2018-02-23T21:02:19.814Z,-2.80
2018-02-23T21:04:47.637Z,-2.80
2018-02-23T21:07:16.166Z,-2.90
2018-02-23T21:09:44.175Z,-2.80
2018-02-23T21:12:12.357Z,-2.90
2018-02-23T21:14:41.272Z,-2.90
2018-02-23T21:17:18.851Z,-3.00
2018-02-23T21:19:59.533Z,-3.10
2018-02-23T21:22:32.109Z,-3.10
2018-02-23T21:25:04.377Z,-3.20
2018-02-23T21:30:22.716Z,-3.20
2018-02-23T21:33:17.123Z,-3.30
2018-02-23T21:38:28.092Z,-3.40
2018-02-23T21:41:02.662Z,-3.30
2018-02-23T21:43:32.439Z,-3.40
2018-02-23T21:46:10.830Z,-3.40
2018-02-23T21:51:19.878Z,-3.50
2018-02-23T21:56:55.370Z,-3.60
2018-02-23T22:05:19.906Z,-3.70
2018-02-23T22:07:50.622Z,-3.70
2018-02-23T22:10:24.218Z,-3.70
2018-02-23T22:12:55.314Z,-3.80
2018-02-23T22:15:23.914Z,-3.80
2018-02-23T22:17:53.978Z,-3.90
2018-02-23T22:20:27.542Z,-3.90
2018-02-23T22:22:55.973Z,-3.90
2018-02-23T22:25:24.245Z,-3.90
2018-02-23T22:27:51.961Z,-3.90
2018-02-23T22:30:20.238Z,-3.90
2018-02-23T22:32:47.960Z,-4.00
2018-02-23T22:35:15.585Z,-4.00
2018-02-23T22:37:43.273Z,-4.10
2018-02-23T22:40:10.924Z,-4.10
2018-02-23T22:42:38.566Z,-4.00
2018-02-23T22:45:06.214Z,-4.10
2018-02-23T22:47:34.619Z,-4.20
2018-02-23T22:50:10.755Z,-4.20
2018-02-23T22:52:39.240Z,-4.30
2018-02-23T22:55:07.643Z,-4.30
2018-02-23T22:57:35.297Z,-4.30
2018-02-23T23:00:02.894Z,-4.30
2018-02-23T23:02:30.517Z,-4.40
2018-02-23T23:04:58.907Z,-4.50
2018-02-23T23:07:26.593Z,-4.50
2018-02-23T23:09:54.289Z,-4.50
2018-02-23T23:12:21.996Z,-4.60
2018-02-23T23:14:49.591Z,-4.60
2018-02-23T23:17:17.223Z,-4.60
2018-02-23T23:19:44.933Z,-4.60
2018-02-23T23:22:13.310Z,-4.70
2018-02-23T23:24:40.957Z,-4.70
2018-02-23T23:27:08.596Z,-4.70
2018-02-23T23:29:36.262Z,-4.70
2018-02-23T23:32:03.937Z,-4.70
2018-02-23T23:34:31.569Z,-4.70
2018-02-23T23:36:59.213Z,-4.80
2018-02-23T23:39:31.849Z,-4.80
2018-02-23T23:42:00.760Z,-4.80
2018-02-23T23:44:28.412Z,-4.80
2018-02-23T23:46:56.519Z,-4.90
2018-02-23T23:49:24.136Z,-4.90
2018-02-23T23:51:52.508Z,-5.00
2018-02-23T23:54:20.136Z,-5.00
2018-02-23T23:56:47.746Z,-5.00
2018-02-23T23:59:15.398Z,-5.10
